createdAt,value
2023-04-27T00:00:26.812Z,12.30
2023-04-27T00:05:53.137Z,12.70
2023-04-27T00:10:59.775Z,8.90
2023-04-27T00:16:08.552Z,8.30
2023-04-27T00:21:15.124Z,12.85
2023-04-27T00:26:22.797Z,10.68
2023-04-27T00:31:32.941Z,11.30
2023-04-27T00:36:40.011Z,12.17
2023-04-27T00:41:46.887Z,12.07
2023-04-27T00:46:55.277Z,15.40
2023-04-27T00:57:09.739Z,10.65
2023-04-27T01:02:17.965Z,10.50
2023-04-27T01:12:34.149Z,14.23
2023-04-27T01:17:42.110Z,8.95
2023-04-27T01:22:48.579Z,8.13
2023-04-27T01:27:57.099Z,11.30
2023-04-27T01:33:04.217Z,6.13
2023-04-27T01:38:10.934Z,7.38
2023-04-27T01:43:18.751Z,6.00
2023-04-27T01:48:25.418Z,9.43
2023-04-27T01:53:31.924Z,16.42
2023-04-27T01:58:39.911Z,9.57
2023-04-27T02:03:46.366Z,9.98
2023-04-27T02:08:52.988Z,11.25
2023-04-27T02:14:01.462Z,11.68
2023-04-27T02:19:31.141Z,8.82
2023-04-27T02:24:38.391Z,10.05
2023-04-27T02:29:46.275Z,16.48
2023-04-27T02:34:53.128Z,7.47
2023-04-27T02:40:00.265Z,10.73
2023-04-27T02:45:10.723Z,10.60
2023-04-27T02:50:17.176Z,9.52
2023-04-27T02:55:25.061Z,4.93
2023-04-27T03:00:32.866Z,11.15
2023-04-27T03:05:39.419Z,8.48
2023-04-27T03:10:45.953Z,9.70
2023-04-27T03:15:54.576Z,8.35
2023-04-27T03:21:09.139Z,11.32
2023-04-27T03:26:17.130Z,6.53
2023-04-27T03:31:25.325Z,6.15
2023-04-27T03:36:32.566Z,8.40
2023-04-27T03:41:39.310Z,6.35
2023-04-27T03:46:47.205Z,7.85
2023-04-27T03:51:53.916Z,6.40
2023-04-27T03:57:00.233Z,12.43
2023-04-27T04:02:09.969Z,12.25
2023-04-27T04:07:16.616Z,13.60
2023-04-27T04:12:23.012Z,12.68
2023-04-27T04:17:34.292Z,9.48
2023-04-27T04:22:41.894Z,11.18
2023-04-27T04:27:49.849Z,16.33
2023-04-27T04:32:57.992Z,8.35
2023-04-27T04:38:04.577Z,15.18
2023-04-27T04:43:11.553Z,23.83
2023-04-27T04:48:20.303Z,31.42
2023-04-27T04:53:26.805Z,26.27
2023-04-27T04:58:35.418Z,37.17
2023-04-27T05:03:46.046Z,23.48
2023-04-27T05:08:52.867Z,21.95
2023-04-27T05:13:59.754Z,27.55
2023-04-27T05:19:08.891Z,28.75
2023-04-27T05:24:15.628Z,20.17
2023-04-27T05:29:22.489Z,26.95
2023-04-27T05:34:30.530Z,13.07
2023-04-27T05:39:36.964Z,14.10
2023-04-27T05:44:43.523Z,11.35
2023-04-27T05:49:54.544Z,15.13
2023-04-27T05:55:01.516Z,12.18
2023-04-27T06:05:22.532Z,13.35
2023-04-27T06:10:36.982Z,13.20
2023-04-27T06:15:43.482Z,11.23
2023-04-27T06:20:51.608Z,8.38
2023-04-27T06:25:59.153Z,9.77
2023-04-27T06:31:07.867Z,12.80
2023-04-27T06:36:16.353Z,15.93
2023-04-27T06:41:23.109Z,11.13
2023-04-27T06:46:29.647Z,15.23
2023-04-27T06:51:39.548Z,15.60
2023-04-27T06:56:46.418Z,14.77
2023-04-27T07:01:53.128Z,11.93
2023-04-27T07:07:01.389Z,13.68
2023-04-27T07:12:09.594Z,8.23
2023-04-27T07:17:15.866Z,8.02
2023-04-27T07:22:23.880Z,8.32
2023-04-27T07:27:32.226Z,12.20
2023-04-27T07:32:42.991Z,10.02
2023-04-27T07:37:51.693Z,20.23
2023-04-27T07:43:00.176Z,10.32
2023-04-27T07:48:07.174Z,8.70
2023-04-27T07:53:14.828Z,8.35
2023-04-27T07:58:21.627Z,6.40
2023-04-27T08:03:28.709Z,8.43
2023-04-27T08:08:37.263Z,7.07
2023-04-27T08:13:43.893Z,6.20
2023-04-27T08:18:51.437Z,6.45
2023-04-27T08:23:59.420Z,8.45
2023-04-27T08:29:19.533Z,7.55
2023-04-27T08:34:33.538Z,5.32
2023-04-27T08:39:41.940Z,5.28
2023-04-27T08:44:48.351Z,7.53
2023-04-27T08:49:54.572Z,6.40
2023-04-27T08:55:02.417Z,5.95
2023-04-27T09:00:13.683Z,5.43
2023-04-27T09:05:21.102Z,5.80
2023-04-27T09:10:30.162Z,4.65
2023-04-27T09:15:47.767Z,4.55
2023-04-27T09:20:55.899Z,4.77
2023-04-27T09:26:08.448Z,3.63
2023-04-27T09:31:14.613Z,3.05
2023-04-27T09:36:22.785Z,2.90
2023-04-27T09:41:31.049Z,2.73
2023-04-27T09:46:37.831Z,4.47
2023-04-27T09:51:44.100Z,4.13
2023-04-27T09:57:04.460Z,5.05
2023-04-27T10:02:24.285Z,3.60
2023-04-27T10:07:33.572Z,2.47
2023-04-27T10:12:41.599Z,3.28
2023-04-27T10:17:54.821Z,4.78
2023-04-27T10:23:01.943Z,11.18
2023-04-27T10:28:10.086Z,5.85
2023-04-27T10:33:20.981Z,3.90
2023-04-27T10:38:33.127Z,5.22
2023-04-27T10:43:41.181Z,3.75
2023-04-27T10:48:49.511Z,4.72
2023-04-27T10:53:56.265Z,5.40
2023-04-27T10:59:07.957Z,5.03
2023-04-27T11:04:16.892Z,3.75
2023-04-27T11:09:30.714Z,7.93
2023-04-27T11:14:38.838Z,3.40
2023-04-27T11:19:48.956Z,3.30
2023-04-27T11:24:55.937Z,4.05
2023-04-27T11:30:03.991Z,7.75
2023-04-27T11:35:11.710Z,4.40
2023-04-27T11:40:20.718Z,2.22
2023-04-27T11:45:29.940Z,3.75
2023-04-27T11:50:36.570Z,4.00
2023-04-27T11:55:43.781Z,5.78
2023-04-27T12:00:53.576Z,4.78
2023-04-27T12:06:21.626Z,2.17
2023-04-27T12:11:30.348Z,2.80
2023-04-27T12:16:38.755Z,2.15
2023-04-27T12:21:45.809Z,5.90
2023-04-27T12:26:53.070Z,7.97
2023-04-27T12:32:01.369Z,2.83
2023-04-27T12:37:08.330Z,7.35
2023-04-27T12:42:15.180Z,2.85
2023-04-27T12:47:46.037Z,4.85
2023-04-27T12:52:52.543Z,2.22
2023-04-27T12:57:59.565Z,4.65
2023-04-27T13:03:08.855Z,5.70
2023-04-27T13:08:15.616Z,2.92
2023-04-27T13:13:22.163Z,4.30
2023-04-27T13:18:32.881Z,3.83
2023-04-27T13:23:41.479Z,4.55
2023-04-27T13:28:48.874Z,2.25
2023-04-27T13:33:57.023Z,2.33
2023-04-27T13:39:06.836Z,11.80
2023-04-27T13:44:13.779Z,4.60
2023-04-27T13:49:22.924Z,3.75
2023-04-27T13:59:35.694Z,3.17
2023-04-27T14:04:43.734Z,4.07
2023-04-27T14:09:54.720Z,2.17
2023-04-27T14:15:01.670Z,3.28
2023-04-27T14:20:12.768Z,5.38
2023-04-27T14:25:20.884Z,2.85
2023-04-27T14:30:29.201Z,6.70
2023-04-27T14:35:38.793Z,3.50
2023-04-27T14:40:45.542Z,3.85
2023-04-27T14:45:55.643Z,6.05
2023-04-27T14:51:09.894Z,2.58
2023-04-27T14:56:16.348Z,2.10
2023-04-27T15:01:23.203Z,3.85
2023-04-27T15:06:31.824Z,6.00
2023-04-27T15:11:38.317Z,5.05
2023-04-27T15:16:44.881Z,5.68
2023-04-27T15:21:53.051Z,16.55
2023-04-27T15:26:59.901Z,2.90
2023-04-27T15:32:06.961Z,4.50
2023-04-27T15:37:15.324Z,3.85
2023-04-27T15:42:22.363Z,4.87
2023-04-27T15:47:29.456Z,3.38
2023-04-27T15:52:37.748Z,5.82
2023-04-27T15:57:44.474Z,4.63
2023-04-27T16:02:51.274Z,6.05
2023-04-27T16:07:59.664Z,12.13
2023-04-27T16:13:07.933Z,6.07
2023-04-27T16:18:14.896Z,3.87
2023-04-27T16:23:23.248Z,5.90
2023-04-27T16:28:29.821Z,5.20
2023-04-27T16:33:36.670Z,7.45
2023-04-27T16:38:45.104Z,5.60
2023-04-27T16:43:52.215Z,4.10
2023-04-27T16:48:59.065Z,4.20
2023-04-27T16:54:07.522Z,5.93
2023-04-27T16:59:14.455Z,2.90
2023-04-27T17:04:21.500Z,6.40
2023-04-27T17:09:29.591Z,8.00
2023-04-27T17:14:36.128Z,11.55
2023-04-27T17:19:43.144Z,8.93
2023-04-27T17:24:51.505Z,10.35
2023-04-27T17:29:58.476Z,6.35
2023-04-27T17:35:05.819Z,5.97
2023-04-27T17:40:16.832Z,6.88
2023-04-27T17:45:24.593Z,5.25
2023-04-27T17:50:32.750Z,6.43
2023-04-27T17:55:41.331Z,8.55
2023-04-27T18:00:48.044Z,8.23
2023-04-27T18:05:55.433Z,11.50
2023-04-27T18:11:07.099Z,8.75
2023-04-27T18:16:13.864Z,12.18
2023-04-27T18:21:21.204Z,10.18
2023-04-27T18:26:31.026Z,9.98
2023-04-27T18:31:39.179Z,7.70
2023-04-27T18:36:51.586Z,8.40
2023-04-27T18:42:01.362Z,9.40
2023-04-27T18:47:09.439Z,5.82
2023-04-27T18:52:17.032Z,7.15
2023-04-27T18:57:26.953Z,6.45
2023-04-27T19:02:38.483Z,11.80
2023-04-27T19:07:45.588Z,22.33
2023-04-27T19:12:53.997Z,22.40
2023-04-27T19:18:07.106Z,27.40
2023-04-27T19:23:19.827Z,20.63
2023-04-27T19:28:28.817Z,24.52
2023-04-27T19:33:37.230Z,36.20
2023-04-27T19:38:46.333Z,37.88
2023-04-27T19:43:55.388Z,39.95
2023-04-27T19:49:07.308Z,27.83
2023-04-27T19:54:14.969Z,24.20
2023-04-27T19:59:24.027Z,25.90
2023-04-27T20:04:31.207Z,28.38
2023-04-27T20:09:39.945Z,25.88
2023-04-27T20:14:48.392Z,28.63
2023-04-27T20:19:57.597Z,50.03
2023-04-27T20:30:14.010Z,40.63
2023-04-27T20:35:20.940Z,36.63
2023-04-27T20:40:27.620Z,35.28
2023-04-27T20:45:37.175Z,46.72
2023-04-27T20:50:44.706Z,27.77
2023-04-27T20:55:51.992Z,33.40
2023-04-27T21:01:01.036Z,44.60
2023-04-27T21:06:08.550Z,45.10
2023-04-27T21:11:17.889Z,33.38
2023-04-27T21:16:26.828Z,37.38
2023-04-27T21:21:33.817Z,19.67
2023-04-27T21:26:40.933Z,15.65
2023-04-27T21:31:49.444Z,20.92
2023-04-27T21:36:56.982Z,18.95
2023-04-27T21:42:03.769Z,15.15
2023-04-27T21:47:12.164Z,18.77
2023-04-27T21:52:20.371Z,16.23
2023-04-27T21:57:27.432Z,17.30
2023-04-27T22:02:36.437Z,14.52
2023-04-27T22:07:43.965Z,18.50
2023-04-27T22:12:51.283Z,17.23
2023-04-27T22:17:59.855Z,17.23
2023-04-27T22:23:10.094Z,18.33
2023-04-27T22:28:16.915Z,15.88
2023-04-27T22:33:25.289Z,14.00
2023-04-27T22:38:32.373Z,15.75
2023-04-27T22:43:38.867Z,11.90
2023-04-27T22:48:47.735Z,18.17
2023-04-27T22:53:54.336Z,24.60
2023-04-27T22:59:02.384Z,17.95
2023-04-27T23:04:10.722Z,18.73
2023-04-27T23:09:17.645Z,17.60
2023-04-27T23:14:24.196Z,17.92
2023-04-27T23:19:32.455Z,15.55
2023-04-27T23:24:39.082Z,14.17
2023-04-27T23:29:45.399Z,14.02
2023-04-27T23:34:56.773Z,21.42
2023-04-27T23:40:09.380Z,14.55
2023-04-27T23:45:16.285Z,13.13
2023-04-27T23:50:25.031Z,9.65
2023-04-27T23:55:35.613Z,13.82
